Time;durP1;ratioP1;P1;durP2;ratioP2;P2;SDS_P1;SDS_P2;PMS_P1;PMS_P2;Temp;Humidity;BMP_temperature;BMP_pressure;BME280_temperature;BME280_humidity;BME280_pressure;Samples;Min_cycle;Max_cycle;Signal;HPM_P1;HPM_P2
2021/12/23 00:01:18;;;;;;;4.78;2.30;;;19.60;54.10;;;;;;4470393;31;20136;-73
2021/12/23 00:03:44;;;;;;;4.75;2.35;;;19.50;54.10;;;;;;4496162;31;20139;-72
2021/12/23 00:06:10;;;;;;;5.85;2.28;;;19.60;54.20;;;;;;4496596;31;20128;-73
2021/12/23 00:08:36;;;;;;;5.25;2.00;;;19.50;54.10;;;;;;4495310;31;20143;-73
2021/12/23 00:11:02;;;;;;;3.38;2.10;;;19.50;54.10;;;;;;4497389;31;20121;-73
2021/12/23 00:13:28;;;;;;;4.88;2.20;;;19.50;54.10;;;;;;4495885;31;20133;-73
2021/12/23 00:23:53;;;;;;;5.40;2.50;;;19.40;54.20;;;;;;4497186;31;20128;-73
2021/12/23 00:26:19;;;;;;;4.47;2.20;;;19.40;54.20;;;;;;4482586;31;20143;-73
2021/12/23 00:28:45;;;;;;;4.05;2.15;;;19.30;54.10;;;;;;4496399;31;20132;-73
2021/12/23 00:31:11;;;;;;;3.95;2.20;;;19.30;54.10;;;;;;4495905;31;20341;-73
2021/12/23 00:33:39;;;;;;;5.45;2.45;;;19.30;54.20;;;;;;4482169;31;20133;-73
2021/12/23 00:36:07;;;;;;;4.95;2.25;;;19.30;54.30;;;;;;4470135;31;20221;-73
2021/12/23 00:38:34;;;;;;;3.70;2.20;;;19.30;54.30;;;;;;4496239;31;20131;-73
2021/12/23 00:41:03;;;;;;;5.03;2.20;;;19.20;54.20;;;;;;4482756;31;20130;-73
2021/12/23 00:43:30;;;;;;;2.67;1.85;;;19.20;54.20;;;;;;4495161;31;20321;-73
2021/12/23 00:45:57;;;;;;;3.92;1.92;;;19.20;54.20;;;;;;4496135;31;20274;-73
2021/12/23 00:48:23;;;;;;;3.30;1.92;;;19.20;54.20;;;;;;4496685;31;20128;-73
2021/12/23 00:50:49;;;;;;;3.70;2.35;;;19.20;54.20;;;;;;4494765;31;20218;-73
2021/12/23 00:53:21;;;;;;;4.22;2.20;;;19.20;54.20;;;;;;4495957;31;20145;-73
2021/12/23 00:55:51;;;;;;;4.60;2.22;;;19.20;54.30;;;;;;4494632;31;20144;-73
2021/12/23 00:58:17;;;;;;;4.22;2.22;;;19.10;54.30;;;;;;4495539;31;20137;-73
2021/12/23 01:00:44;;;;;;;5.82;2.10;;;19.10;54.30;;;;;;4496122;31;20136;-73
2021/12/23 01:03:10;;;;;;;3.45;2.10;;;19.10;54.30;;;;;;4495078;31;20626;-73
2021/12/23 01:05:38;;;;;;;4.30;1.92;;;19.10;54.30;;;;;;4495546;31;20150;-73
2021/12/23 01:08:04;;;;;;;3.97;2.35;;;19.00;54.30;;;;;;4495556;31;20159;-73
2021/12/23 01:10:31;;;;;;;4.15;2.17;;;19.00;54.30;;;;;;4496843;31;20129;-73
2021/12/23 01:13:01;;;;;;;4.07;2.25;;;19.00;54.30;;;;;;4494700;31;20191;-74
2021/12/23 01:18:08;;;;;;;3.33;2.08;;;19.00;54.50;;;;;;4494818;31;20145;-73
2021/12/23 01:20:37;;;;;;;3.97;2.22;;;19.00;54.50;;;;;;4494743;31;20132;-73
2021/12/23 01:23:07;;;;;;;3.72;2.42;;;18.90;54.40;;;;;;4495335;31;20144;-73
2021/12/23 01:25:35;;;;;;;3.20;1.88;;;18.90;54.40;;;;;;4481211;31;20137;-73
2021/12/23 01:28:02;;;;;;;3.90;2.20;;;18.90;54.40;;;;;;4495051;31;20132;-73
2021/12/23 01:30:29;;;;;;;4.82;2.10;;;18.90;54.50;;;;;;4495450;31;20113;-73
2021/12/23 01:32:56;;;;;;;3.88;2.15;;;18.90;54.50;;;;;;4495672;31;20193;-73
2021/12/23 01:35:23;;;;;;;2.47;1.90;;;18.90;54.40;;;;;;4494944;31;20904;-73
2021/12/23 01:37:49;;;;;;;4.65;2.33;;;18.80;54.40;;;;;;4493998;31;20274;-73
2021/12/23 01:40:18;;;;;;;5.53;2.15;;;18.80;54.40;;;;;;4496199;31;20152;-73
2021/12/23 01:42:45;;;;;;;3.58;2.47;;;18.80;54.40;;;;;;4494345;31;20459;-73
2021/12/23 01:45:14;;;;;;;4.05;2.30;;;18.80;54.40;;;;;;4495743;31;20133;-73
2021/12/23 01:47:41;;;;;;;3.05;2.15;;;18.80;54.40;;;;;;4495447;31;20148;-73
2021/12/23 01:50:10;;;;;;;4.15;2.10;;;18.80;54.40;;;;;;4495313;31;20121;-73
2021/12/23 01:52:36;;;;;;;3.47;2.28;;;18.80;54.40;;;;;;4495739;31;20266;-73
2021/12/23 01:55:03;;;;;;;3.17;2.20;;;18.70;54.30;;;;;;4493953;31;20844;-73
2021/12/23 01:57:33;;;;;;;5.88;2.40;;;18.70;54.30;;;;;;4496216;31;20146;-73
2021/12/23 02:00:03;;;;;;;3.20;2.22;;;18.70;54.30;;;;;;4493870;31;20144;-73
2021/12/23 02:02:31;;;;;;;2.70;2.20;;;18.70;54.30;;;;;;4494579;31;20143;-73
2021/12/23 02:04:56;;;;;;;3.45;2.20;;;18.60;54.30;;;;;;4494996;31;20251;-73
2021/12/23 02:07:23;;;;;;;2.78;2.08;;;18.70;54.30;;;;;;4495062;31;20595;-73
2021/12/23 02:09:49;;;;;;;2.88;2.30;;;18.70;54.30;;;;;;4494637;31;20129;-73
2021/12/23 02:12:16;;;;;;;5.03;2.75;;;18.60;54.30;;;;;;4494467;31;20121;-73
2021/12/23 02:14:46;;;;;;;3.92;2.42;;;18.60;54.30;;;;;;4495975;31;20132;-73
2021/12/23 02:17:12;;;;;;;4.28;2.22;;;18.60;54.30;;;;;;4494367;31;20120;-73
2021/12/23 02:19:38;;;;;;;3.55;2.50;;;18.60;55.10;;;;;;4494315;31;20121;-73
2021/12/23 02:22:04;;;;;;;4.03;2.10;;;18.60;54.20;;;;;;4493871;31;20198;-73
2021/12/23 02:24:30;;;;;;;3.05;2.25;;;18.50;54.20;;;;;;4494918;31;20660;-73
2021/12/23 02:26:56;;;;;;;4.15;2.33;;;18.50;54.10;;;;;;4495290;31;20671;-72
2021/12/23 02:29:23;;;;;;;4.05;2.28;;;18.50;54.00;;;;;;4494660;31;20136;-73
2021/12/23 02:31:50;;;;;;;6.00;2.20;;;18.50;54.00;;;;;;4495686;31;20221;-73
2021/12/23 02:34:17;;;;;;;2.83;2.42;;;18.50;53.90;;;;;;4493079;31;20145;-73
2021/12/23 02:36:52;;;;;;;3.30;2.00;;;18.50;54.00;;;;;;4481363;31;20148;-73
2021/12/23 02:39:20;;;;;;;4.82;2.47;;;18.50;54.00;;;;;;4493564;31;20144;-73
2021/12/23 02:41:46;;;;;;;2.35;2.15;;;18.50;54.20;;;;;;4494588;31;20194;-73
2021/12/23 02:44:13;;;;;;;2.80;2.10;;;18.50;54.20;;;;;;4494079;31;20109;-73
2021/12/23 02:46:39;;;;;;;3.33;2.30;;;18.50;54.20;;;;;;4494330;31;20113;-73
2021/12/23 02:49:05;;;;;;;3.58;2.38;;;18.50;54.20;;;;;;4480699;31;20139;-73
2021/12/23 02:51:33;;;;;;;3.90;2.60;;;18.40;54.10;;;;;;4479594;31;20522;-73
2021/12/23 02:53:59;;;;;;;2.67;2.17;;;18.40;54.20;;;;;;4480651;31;20144;-72
2021/12/23 02:56:25;;;;;;;2.83;2.03;;;18.40;54.10;;;;;;4494701;31;20160;-73
2021/12/23 02:58:51;;;;;;;3.22;2.30;;;18.40;54.10;;;;;;4494465;31;20180;-73
2021/12/23 03:01:19;;;;;;;3.72;2.10;;;18.40;54.10;;;;;;4480816;31;20119;-73
2021/12/23 03:03:45;;;;;;;3.50;2.25;;;18.40;54.10;;;;;;4494334;31;20128;-73
2021/12/23 03:06:12;;;;;;;4.13;2.47;;;18.40;54.10;;;;;;4493976;31;20137;-72
2021/12/23 03:08:50;;;;;;;2.95;2.25;;;18.30;54.00;;;;;;4493025;31;20120;-72
2021/12/23 03:11:19;;;;;;;3.40;2.67;;;18.30;54.10;;;;;;4494572;32;20246;-73
2021/12/23 03:13:46;;;;;;;3.38;2.17;;;18.30;54.10;;;;;;4493683;32;20148;-72
2021/12/23 03:16:14;;;;;;;3.17;2.22;;;18.30;54.10;;;;;;4493059;32;20145;-73
2021/12/23 03:18:41;;;;;;;3.90;2.58;;;18.30;54.10;;;;;;4493944;32;20147;-72
2021/12/23 03:21:07;;;;;;;2.88;2.38;;;18.30;54.10;;;;;;4479820;32;20493;-72
2021/12/23 03:23:33;;;;;;;3.08;2.30;;;18.30;54.20;;;;;;4494173;32;20129;-72
2021/12/23 03:25:59;;;;;;;2.80;2.30;;;18.20;54.00;;;;;;4494576;31;20164;-73
2021/12/23 03:28:26;;;;;;;2.55;2.10;;;18.20;54.20;;;;;;4493219;32;20148;-73
2021/12/23 03:30:52;;;;;;;3.10;2.38;;;18.20;54.10;;;;;;4494682;32;20148;-73
2021/12/23 03:33:19;;;;;;;2.53;1.98;;;18.20;54.10;;;;;;4492693;32;20542;-74
2021/12/23 03:35:46;;;;;;;3.10;2.22;;;18.20;54.30;;;;;;4494065;32;20145;-73
2021/12/23 03:38:12;;;;;;;3.05;2.10;;;18.20;54.20;;;;;;4479959;32;20507;-73
2021/12/23 03:40:38;;;;;;;3.30;2.20;;;18.20;54.30;;;;;;4495128;31;20112;-73
2021/12/23 03:43:05;;;;;;;3.50;2.10;;;18.10;54.20;;;;;;4492848;32;20121;-73
2021/12/23 03:45:31;;;;;;;3.28;2.15;;;18.10;54.00;;;;;;4494492;32;20128;-73
2021/12/23 03:47:57;;;;;;;2.65;2.20;;;18.10;54.10;;;;;;4494437;32;20274;-71
2021/12/23 03:50:25;;;;;;;3.97;2.45;;;18.10;54.00;;;;;;4499726;31;20182;-73
2021/12/23 03:52:52;;;;;;;3.55;2.40;;;18.10;54.00;;;;;;4511056;31;20128;-72
2021/12/23 03:55:19;;;;;;;3.13;2.45;;;18.10;54.00;;;;;;4508693;31;20121;-73
2021/12/23 03:57:46;;;;;;;3.05;2.33;;;18.10;54.00;;;;;;4510801;31;20147;-72
2021/12/23 04:00:15;;;;;;;3.28;2.30;;;18.10;54.00;;;;;;4508369;31;20282;-72
2021/12/23 04:02:41;;;;;;;3.50;2.42;;;18.10;54.00;;;;;;4511511;31;20120;-72
2021/12/23 04:05:08;;;;;;;4.03;2.60;;;18.00;54.10;;;;;;4512740;31;20151;-72
2021/12/23 04:07:35;;;;;;;3.55;2.25;;;18.00;54.00;;;;;;4511548;31;20136;-73
2021/12/23 04:10:01;;;;;;;3.20;2.40;;;18.00;54.10;;;;;;4512657;31;20124;-73
2021/12/23 04:12:27;;;;;;;3.13;2.45;;;18.00;54.10;;;;;;4485160;31;20627;-73
2021/12/23 04:14:53;;;;;;;2.60;2.17;;;18.00;54.10;;;;;;4513421;31;20124;-73
2021/12/23 04:17:19;;;;;;;2.45;2.20;;;18.00;54.00;;;;;;4511187;31;20223;-73
2021/12/23 04:19:46;;;;;;;3.10;2.20;;;17.90;54.10;;;;;;4513053;31;20693;-73
2021/12/23 04:22:13;;;;;;;2.83;2.38;;;17.90;54.10;;;;;;4512617;31;20120;-73
2021/12/23 04:24:39;;;;;;;3.08;2.20;;;17.90;55.00;;;;;;4511616;31;20124;-72
2021/12/23 04:27:05;;;;;;;3.53;2.60;;;17.90;54.10;;;;;;4513308;31;20147;-73
2021/12/23 04:29:32;;;;;;;3.85;2.38;;;17.90;54.20;;;;;;4497824;31;20141;-73
2021/12/23 04:31:59;;;;;;;2.50;2.20;;;17.90;54.10;;;;;;4512240;31;20137;-73
2021/12/23 04:34:26;;;;;;;4.38;2.10;;;17.90;54.10;;;;;;4511990;31;20155;-73
2021/12/23 04:36:52;;;;;;;3.30;2.50;;;17.90;54.10;;;;;;4512875;31;20619;-73
2021/12/23 04:39:18;;;;;;;3.13;2.40;;;17.90;54.20;;;;;;4511099;31;20144;-73
2021/12/23 04:41:45;;;;;;;3.92;2.30;;;17.80;54.20;;;;;;4512201;31;20116;-73
2021/12/23 04:44:10;;;;;;;3.28;2.60;;;17.80;54.30;;;;;;4511931;31;20128;-73
2021/12/23 04:46:37;;;;;;;2.85;2.05;;;17.80;54.20;;;;;;4511918;31;20474;-73
2021/12/23 04:49:03;;;;;;;2.33;2.13;;;17.80;54.20;;;;;;4498685;31;20183;-72
2021/12/23 04:51:29;;;;;;;3.17;2.28;;;17.80;54.20;;;;;;4497790;31;20198;-73
2021/12/23 04:53:55;;;;;;;4.05;2.28;;;17.80;54.30;;;;;;4512567;31;20579;-73
2021/12/23 04:56:21;;;;;;;3.50;2.38;;;17.80;54.30;;;;;;4511097;31;20136;-72
2021/12/23 04:58:46;;;;;;;3.67;2.63;;;17.80;54.30;;;;;;4497783;31;20168;-73
2021/12/23 05:01:20;;;;;;;4.00;2.63;;;17.80;54.30;;;;;;4498350;31;20135;-73
2021/12/23 05:03:47;;;;;;;2.78;2.42;;;17.70;54.30;;;;;;4510935;31;20132;-72
2021/12/23 05:06:17;;;;;;;3.60;2.58;;;17.70;54.30;;;;;;4498853;31;20253;-73
2021/12/23 05:08:43;;;;;;;2.80;2.05;;;17.70;54.30;;;;;;4510711;31;20655;-72
2021/12/23 05:11:10;;;;;;;3.00;2.47;;;17.70;54.30;;;;;;4512256;31;20206;-73
2021/12/23 05:13:36;;;;;;;3.20;2.38;;;17.70;54.30;;;;;;4511291;31;20158;-73
2021/12/23 05:16:02;;;;;;;3.00;2.15;;;17.70;54.30;;;;;;4511728;31;20159;-72
2021/12/23 05:18:28;;;;;;;3.03;2.30;;;17.60;54.30;;;;;;4511347;31;20162;-73
2021/12/23 05:20:54;;;;;;;3.08;2.50;;;17.60;54.30;;;;;;4510296;31;20276;-73
2021/12/23 05:23:20;;;;;;;2.88;2.40;;;17.60;54.20;;;;;;4511406;31;20132;-73
2021/12/23 05:25:47;;;;;;;3.28;2.45;;;17.60;54.30;;;;;;4510598;31;20186;-73
2021/12/23 05:28:13;;;;;;;2.75;2.40;;;17.60;54.20;;;;;;4511018;31;20691;-72
2021/12/23 05:30:41;;;;;;;3.95;2.70;;;17.60;54.20;;;;;;4511326;31;20277;-72
2021/12/23 05:33:07;;;;;;;3.03;2.20;;;17.60;54.20;;;;;;4511646;31;20128;-72
2021/12/23 05:35:33;;;;;;;3.38;2.60;;;17.60;54.30;;;;;;4511772;31;20143;-72
2021/12/23 05:37:59;;;;;;;2.97;2.53;;;17.60;54.20;;;;;;4497111;31;20140;-72
2021/12/23 05:40:28;;;;;;;3.42;2.50;;;17.60;54.20;;;;;;4511267;31;20141;-73
2021/12/23 05:42:55;;;;;;;3.30;2.20;;;17.60;54.30;;;;;;4510372;31;20128;-73
2021/12/23 05:45:21;;;;;;;3.95;2.60;;;17.50;54.20;;;;;;4510604;31;20146;-72
2021/12/23 05:47:48;;;;;;;2.95;2.05;;;17.50;54.30;;;;;;4511458;31;20136;-72
2021/12/23 05:50:15;;;;;;;3.53;2.40;;;17.50;54.30;;;;;;4510219;31;20145;-72
2021/12/23 05:52:41;;;;;;;2.47;2.08;;;17.50;54.40;;;;;;4497609;31;20179;-72
2021/12/23 05:55:09;;;;;;;3.00;2.00;;;17.50;54.40;;;;;;4483778;31;20239;-73
2021/12/23 05:57:35;;;;;;;2.10;1.90;;;17.50;54.50;;;;;;4510590;31;20182;-72
2021/12/23 06:00:07;;;;;;;3.55;2.38;;;17.50;54.40;;;;;;4509942;31;20136;-72
2021/12/23 06:02:33;;;;;;;3.00;2.00;;;17.50;54.40;;;;;;4510509;31;20134;-72
2021/12/23 06:04:59;;;;;;;2.58;2.30;;;17.40;54.40;;;;;;4510118;31;20129;-72
2021/12/23 06:07:24;;;;;;;2.60;2.15;;;17.40;54.40;;;;;;4509972;31;20155;-73
2021/12/23 06:09:50;;;;;;;3.10;2.40;;;17.40;54.40;;;;;;4510452;31;20181;-72
2021/12/23 06:12:16;;;;;;;2.78;2.20;;;17.40;54.30;;;;;;4496495;31;20198;-73
2021/12/23 06:14:42;;;;;;;2.88;2.42;;;17.40;54.30;;;;;;4497538;31;20132;-72
2021/12/23 06:17:08;;;;;;;3.88;2.38;;;17.40;54.30;;;;;;4510629;31;20180;-72
2021/12/23 06:19:34;;;;;;;3.03;2.33;;;17.40;54.30;;;;;;4510175;31;20246;-72
2021/12/23 06:22:00;;;;;;;4.10;2.80;;;17.40;54.30;;;;;;4510018;31;20112;-72
2021/12/23 06:24:26;;;;;;;3.17;2.72;;;17.40;54.30;;;;;;4510502;31;20116;-73
2021/12/23 06:26:52;;;;;;;2.92;2.70;;;17.30;54.20;;;;;;4511333;31;20116;-72
2021/12/23 06:29:18;;;;;;;2.70;2.28;;;17.30;54.20;;;;;;4496305;31;20258;-72
2021/12/23 06:31:44;;;;;;;3.13;2.25;;;17.30;54.20;;;;;;4511289;31;20136;-73
2021/12/23 06:34:10;;;;;;;3.50;2.83;;;17.30;54.20;;;;;;4509515;31;20116;-72
2021/12/23 06:36:36;;;;;;;3.53;2.53;;;17.30;54.20;;;;;;4510188;31;20121;-72
2021/12/23 06:39:04;;;;;;;2.85;2.55;;;17.30;54.20;;;;;;4496242;31;20135;-73
2021/12/23 06:41:30;;;;;;;3.28;2.50;;;17.30;54.10;;;;;;4510610;31;20140;-72
2021/12/23 06:43:56;;;;;;;3.72;2.90;;;17.30;54.10;;;;;;4511049;31;20112;-72
2021/12/23 06:46:22;;;;;;;3.38;2.53;;;17.30;54.10;;;;;;4503147;31;20112;-72
2021/12/23 06:48:48;;;;;;;3.50;2.80;;;17.30;54.00;;;;;;4494124;31;20147;-72
2021/12/23 06:51:13;;;;;;;3.67;2.35;;;17.30;54.00;;;;;;4494223;31;20124;-72
2021/12/23 06:53:39;;;;;;;4.80;2.80;;;17.30;54.00;;;;;;4495030;31;20186;-73
2021/12/23 06:56:05;;;;;;;2.88;2.55;;;17.20;54.00;;;;;;4493627;31;20297;-72
2021/12/23 06:58:32;;;;;;;3.22;2.58;;;17.20;54.00;;;;;;4493397;31;20213;-71
2021/12/23 07:00:59;;;;;;;5.32;2.35;;;17.20;54.00;;;;;;4495056;31;20112;-70
2021/12/23 07:03:33;;;;;;;3.05;2.75;;;17.20;54.10;;;;;;4492999;31;20155;-69
2021/12/23 07:06:05;;;;;;;6.15;5.05;;;17.20;54.10;;;;;;4494045;31;20156;-70
2021/12/23 07:08:34;;;;;;;6.97;5.55;;;17.20;53.50;;;;;;4493186;31;20132;-68
2021/12/23 07:11:00;;;;;;;8.27;5.43;;;17.10;52.90;;;;;;4494895;31;20132;-71
2021/12/23 07:13:26;;;;;;;7.32;4.93;;;17.10;52.40;;;;;;4480438;32;20135;-71
2021/12/23 07:15:53;;;;;;;5.93;5.05;;;17.10;52.50;;;;;;4494114;32;20144;-74
2021/12/23 07:18:18;;;;;;;6.22;5.00;;;17.10;52.80;;;;;;4480904;32;20132;-72
2021/12/23 07:20:44;;;;;;;5.75;4.30;;;17.10;52.90;;;;;;4492969;32;20139;-70
2021/12/23 07:23:10;;;;;;;6.13;4.57;;;17.10;52.90;;;;;;4494213;32;20297;-70
2021/12/23 07:25:36;;;;;;;5.38;4.43;;;17.10;53.10;;;;;;4479681;32;20243;-71
2021/12/23 07:28:02;;;;;;;5.10;3.85;;;17.10;53.00;;;;;;4494942;32;20130;-72
2021/12/23 07:30:29;;;;;;;4.80;3.63;;;17.20;52.90;;;;;;4494392;32;20136;-70
2021/12/23 07:32:56;;;;;;;4.55;3.63;;;17.20;52.70;;;;;;4493167;32;20136;-70
2021/12/23 07:35:22;;;;;;;5.20;3.53;;;17.30;52.60;;;;;;4494839;32;20497;-73
2021/12/23 07:37:49;;;;;;;4.57;3.20;;;17.40;52.50;;;;;;4495005;31;20143;-71
2021/12/23 07:40:17;;;;;;;5.65;3.05;;;17.60;53.20;;;;;;4497160;31;20146;-72
2021/12/23 07:42:53;;;;;;;5.85;2.90;;;17.70;52.00;;;;;;4496816;31;20131;-72
2021/12/23 07:45:21;;;;;;;3.80;2.92;;;17.80;51.70;;;;;;4496886;31;20478;-71
2021/12/23 07:47:47;;;;;;;4.55;3.10;;;17.90;51.40;;;;;;4497221;31;20262;-71
2021/12/23 07:50:13;;;;;;;3.75;2.75;;;18.10;51.30;;;;;;4496908;31;20136;-71
2021/12/23 07:52:39;;;;;;;4.88;2.80;;;18.20;51.10;;;;;;4496580;31;20213;-71
2021/12/23 07:55:05;;;;;;;4.47;2.60;;;18.30;50.90;;;;;;4482731;31;20125;-71
2021/12/23 07:57:31;;;;;;;5.95;2.42;;;18.40;50.80;;;;;;4498090;31;20136;-71
2021/12/23 07:59:59;;;;;;;5.65;2.72;;;18.50;50.60;;;;;;4495675;31;20133;-70
2021/12/23 08:02:24;;;;;;;2.67;2.17;;;18.60;50.50;;;;;;4483581;31;20152;-70
2021/12/23 08:04:50;;;;;;;6.30;2.60;;;18.70;50.30;;;;;;4495766;31;20278;-71
2021/12/23 08:07:16;;;;;;;4.60;2.47;;;18.80;50.10;;;;;;4496929;31;20125;-72
2021/12/23 08:09:42;;;;;;;3.20;2.13;;;18.90;49.90;;;;;;4497199;31;20121;-72
2021/12/23 08:12:09;;;;;;;3.05;2.17;;;19.10;49.90;;;;;;4495504;31;20136;-72
2021/12/23 08:14:35;;;;;;;2.25;2.00;;;19.20;49.70;;;;;;4496770;31;20139;-71
2021/12/23 08:17:01;;;;;;;5.95;2.22;;;19.30;49.60;;;;;;4495194;31;20143;-72
2021/12/23 08:19:27;;;;;;;3.78;3.20;;;19.40;49.40;;;;;;4496437;31;20128;-72
2021/12/23 08:21:53;;;;;;;5.40;3.28;;;19.40;48.70;;;;;;4495631;31;20147;-72
2021/12/23 08:24:19;;;;;;;3.80;2.65;;;19.50;48.20;;;;;;4495711;31;20286;-71
2021/12/23 08:26:51;;;;;;;2.97;2.53;;;19.50;48.00;;;;;;4496123;31;20137;-72
2021/12/23 08:29:19;;;;;;;3.55;2.88;;;19.60;47.90;;;;;;4482996;31;20127;-72
2021/12/23 08:31:46;;;;;;;3.88;2.80;;;19.70;47.80;;;;;;4497354;31;20636;-71
2021/12/23 08:34:13;;;;;;;3.50;2.40;;;19.70;47.70;;;;;;4496389;31;20136;-72
2021/12/23 08:36:39;;;;;;;5.25;2.55;;;19.80;47.80;;;;;;4496216;31;20135;-72
2021/12/23 08:39:05;;;;;;;4.25;2.10;;;19.80;47.70;;;;;;4495222;31;20136;-72
2021/12/23 08:41:31;;;;;;;7.00;2.40;;;19.90;47.60;;;;;;4482261;31;20137;-72
2021/12/23 08:43:57;;;;;;;4.15;2.35;;;20.00;47.60;;;;;;4496921;31;20594;-72
2021/12/23 08:46:23;;;;;;;2.22;1.85;;;20.00;47.50;;;;;;4482120;31;20188;-72
2021/12/23 08:48:49;;;;;;;4.13;2.15;;;20.10;47.40;;;;;;4481924;31;20259;-72
2021/12/23 08:51:15;;;;;;;2.67;1.75;;;20.20;47.30;;;;;;4496230;31;20132;-73
2021/12/23 08:53:42;;;;;;;3.25;2.05;;;20.20;47.20;;;;;;4495953;31;20116;-72
2021/12/23 08:56:08;;;;;;;2.95;2.00;;;20.30;47.10;;;;;;4495287;31;20588;-72
2021/12/23 08:58:36;;;;;;;6.07;2.03;;;20.30;47.10;;;;;;4496964;31;20500;-73
2021/12/23 09:01:04;;;;;;;2.97;2.08;;;20.40;47.10;;;;;;4496681;31;20133;-72
2021/12/23 09:03:32;;;;;;;4.50;2.00;;;20.40;46.90;;;;;;4496253;31;20151;-72
2021/12/23 09:05:59;;;;;;;3.08;2.33;;;20.50;46.90;;;;;;4495302;31;20137;-72
2021/12/23 09:08:26;;;;;;;3.47;2.28;;;20.60;46.70;;;;;;4495483;31;20157;-71
2021/12/23 09:10:57;;;;;;;2.50;2.15;;;20.70;46.70;;;;;;4495923;31;20125;-70
2021/12/23 09:13:23;;;;;;;2.58;2.20;;;20.70;46.70;;;;;;4495615;31;20198;-70
2021/12/23 09:15:51;;;;;;;2.55;2.03;;;20.80;46.70;;;;;;4481132;31;20140;-70
2021/12/23 09:18:19;;;;;;;4.18;2.08;;;20.80;46.50;;;;;;4494921;31;20180;-70
2021/12/23 09:20:45;;;;;;;2.63;2.00;;;20.90;46.50;;;;;;4494214;31;20655;-70
2021/12/23 09:23:11;;;;;;;2.92;1.70;;;20.90;46.50;;;;;;4508028;31;20147;-70
2021/12/23 09:25:38;;;;;;;3.47;2.10;;;20.90;46.50;;;;;;4481110;31;20129;-71
2021/12/23 09:33:24;;;;;;;2.70;2.05;;;21.00;46.60;;;;;;4509821;31;20516;-71
2021/12/23 09:35:51;;;;;;;2.25;1.90;;;21.00;46.60;;;;;;4495571;31;20242;-71
2021/12/23 09:38:19;;;;;;;2.53;1.70;;;21.00;46.60;;;;;;4502955;31;20142;-72
2021/12/23 09:40:46;;;;;;;2.72;2.20;;;21.00;46.60;;;;;;4504695;31;20188;-72
2021/12/23 09:43:13;;;;;;;3.97;1.92;;;21.00;46.60;;;;;;4494974;31;20140;-72
2021/12/23 09:45:41;;;;;;;3.13;1.85;;;21.00;46.60;;;;;;4494635;31;20191;-73
2021/12/23 09:48:08;;;;;;;3.85;1.90;;;21.10;46.70;;;;;;4494292;31;20213;-72
2021/12/23 09:50:39;;;;;;;3.60;2.25;;;21.00;47.70;;;;;;4495032;31;20217;-70
2021/12/23 09:53:06;;;;;;;2.95;2.00;;;21.00;46.80;;;;;;4496091;31;20124;-73
2021/12/23 09:55:35;;;;;;;3.97;2.22;;;21.00;46.80;;;;;;4494080;31;20132;-73
2021/12/23 09:58:04;;;;;;;3.10;1.80;;;21.00;46.70;;;;;;4495734;31;20136;-74
2021/12/23 10:00:32;;;;;;;6.13;2.10;;;21.00;46.70;;;;;;4494962;31;20147;-73
2021/12/23 10:02:59;;;;;;;2.88;2.00;;;21.00;46.60;;;;;;4493997;31;20559;-73
2021/12/23 10:05:29;;;;;;;3.97;2.42;;;21.00;46.60;;;;;;4495691;31;20167;-74
2021/12/23 10:07:55;;;;;;;5.05;2.03;;;21.10;47.50;;;;;;4494625;31;20190;-73
2021/12/23 10:10:26;;;;;;;6.03;2.30;;;21.10;46.50;;;;;;4496066;31;20148;-75
2021/12/23 10:37:14;;;;;;;3.25;2.00;;;21.10;47.20;;;;;;4499533;31;20213;-74
2021/12/23 10:39:43;;;;;;;3.90;2.72;;;21.10;47.20;;;;;;4497054;31;20117;-75
2021/12/23 10:42:24;;;;;;;7.03;2.30;;;21.10;47.30;;;;;;4493875;31;20185;-74
2021/12/23 10:44:54;;;;;;;4.43;2.38;;;21.10;47.30;;;;;;4497203;31;20139;-71
2021/12/23 10:50:21;;;;;;;3.90;2.20;;;21.20;47.50;;;;;;4494255;31;20128;-69
2021/12/23 10:52:56;;;;;;;7.10;2.75;;;21.20;47.50;;;;;;4494301;31;20147;-74
2021/12/23 11:00:49;;;;;;;5.63;2.53;;;21.30;47.40;;;;;;4494632;31;20136;-71
2021/12/23 11:43:57;;;;;;;4.30;2.95;;;21.20;48.20;;;;;;4493862;31;20128;-73
2021/12/23 11:46:29;;;;;;;4.63;3.20;;;21.20;48.20;;;;;;4492635;31;20270;-72
2021/12/23 11:48:57;;;;;;;5.30;4.38;;;21.20;48.20;;;;;;4505687;31;20158;-75
2021/12/23 11:51:54;;;;;;;8.00;4.72;;;21.20;48.20;;;;;;4508525;31;20136;-73
2021/12/23 11:54:32;;;;;;;4.78;3.90;;;21.20;47.90;;;;;;4508920;31;20144;-74
2021/12/23 11:57:15;;;;;;;5.18;3.70;;;21.20;47.90;;;;;;4506586;31;20129;-73
2021/12/23 11:59:50;;;;;;;4.78;3.60;;;21.20;47.90;;;;;;4492443;31;20614;-75
2021/12/23 12:02:19;;;;;;;6.25;3.63;;;21.20;47.80;;;;;;4493111;31;20128;-78
2021/12/23 12:04:47;;;;;;;4.65;3.55;;;21.20;47.80;;;;;;4493675;31;20140;-75
2021/12/23 12:07:17;;;;;;;4.15;3.20;;;21.30;47.80;;;;;;4493271;31;20151;-74
2021/12/23 12:09:57;;;;;;;5.65;3.60;;;21.30;47.80;;;;;;4493224;31;20136;-74
2021/12/23 12:12:23;;;;;;;4.35;3.75;;;21.30;47.90;;;;;;4494063;31;20258;-75
2021/12/23 12:14:51;;;;;;;4.25;3.20;;;21.30;48.00;;;;;;4493167;31;20135;-76
2021/12/23 12:17:26;;;;;;;4.55;3.35;;;21.20;48.10;;;;;;4493204;31;20136;-74
2021/12/23 12:20:21;;;;;;;5.38;3.45;;;21.20;48.30;;;;;;4499591;31;20156;-74
2021/12/23 12:22:58;;;;;;;6.88;3.40;;;21.20;48.40;;;;;;4494777;31;20143;-75
2021/12/23 12:25:24;;;;;;;6.22;3.42;;;21.20;48.50;;;;;;4509131;31;20144;-74
2021/12/23 12:27:57;;;;;;;5.53;3.38;;;21.20;48.50;;;;;;4506346;31;20120;-74
2021/12/23 12:30:47;;;;;;;6.63;3.13;;;21.30;48.60;;;;;;4495364;31;20194;-75
2021/12/23 12:33:26;;;;;;;5.10;3.20;;;21.30;48.60;;;;;;4495189;31;20144;-74
2021/12/23 12:35:58;;;;;;;4.63;3.05;;;21.30;48.60;;;;;;4495746;31;20234;-72
2021/12/23 12:38:26;;;;;;;4.22;3.08;;;21.30;48.60;;;;;;4494681;31;20205;-74
2021/12/23 12:41:16;;;;;;;4.50;3.55;;;21.30;48.60;;;;;;4498576;31;20263;-74
2021/12/23 12:43:58;;;;;;;6.65;3.00;;;21.30;48.60;;;;;;4507116;31;20577;-74
2021/12/23 12:46:26;;;;;;;5.68;3.38;;;21.40;48.60;;;;;;4495944;31;20525;-74
2021/12/23 12:48:58;;;;;;;6.88;3.28;;;21.40;48.70;;;;;;4495377;31;20179;-73
2021/12/23 12:51:33;;;;;;;3.83;2.95;;;21.40;48.70;;;;;;4494341;31;20152;-70
2021/12/23 12:54:08;;;;;;;4.95;3.53;;;21.40;48.80;;;;;;4507549;31;20147;-73
2021/12/23 12:56:42;;;;;;;5.10;3.22;;;21.40;49.00;;;;;;4504389;31;20128;-73
2021/12/23 12:59:08;;;;;;;4.32;3.53;;;21.30;49.00;;;;;;4504329;31;20687;-73
2021/12/23 13:01:38;;;;;;;8.27;3.38;;;21.40;49.20;;;;;;4497816;31;20494;-73
2021/12/23 13:04:06;;;;;;;4.18;3.60;;;21.40;49.30;;;;;;4496826;31;20192;-74
2021/12/23 13:06:39;;;;;;;4.50;3.85;;;21.40;49.20;;;;;;4496027;31;20266;-75
2021/12/23 13:09:10;;;;;;;4.70;3.78;;;21.40;49.00;;;;;;4496138;31;20280;-77
2021/12/23 13:11:40;;;;;;;6.63;3.70;;;21.40;49.00;;;;;;4495734;31;20147;-75
2021/12/23 13:14:13;;;;;;;5.13;3.60;;;21.40;49.10;;;;;;4496414;31;20222;-79
2021/12/23 13:16:55;;;;;;;5.50;3.63;;;21.30;49.10;;;;;;4507392;31;20310;-73
2021/12/23 13:19:21;;;;;;;4.20;2.88;;;21.40;49.30;;;;;;4494599;31;20132;-74
2021/12/23 13:21:50;;;;;;;6.93;3.67;;;21.40;49.30;;;;;;4500181;31;20143;-76
2021/12/23 13:24:18;;;;;;;5.90;3.30;;;21.40;49.40;;;;;;4497575;31;20176;-78
2021/12/23 13:26:45;;;;;;;4.60;3.40;;;21.40;49.30;;;;;;4496112;31;20121;-74
2021/12/23 13:29:12;;;;;;;6.65;2.95;;;21.40;49.30;;;;;;4493922;31;20136;-72
2021/12/23 13:31:40;;;;;;;7.60;3.72;;;21.40;49.40;;;;;;4492788;31;20140;-72
2021/12/23 13:34:10;;;;;;;4.75;3.08;;;21.50;49.60;;;;;;4502046;31;20159;-72
2021/12/23 13:36:57;;;;;;;4.10;3.30;;;21.50;49.70;;;;;;4501299;31;20210;-73
2021/12/23 13:39:26;;;;;;;7.85;3.17;;;21.50;49.70;;;;;;4507428;31;20193;-73
2021/12/23 13:41:55;;;;;;;4.00;3.38;;;21.50;49.80;;;;;;4503969;31;20128;-73
2021/12/23 13:44:30;;;;;;;5.18;3.40;;;21.50;49.90;;;;;;4503343;31;21273;-74
2021/12/23 13:47:17;;;;;;;3.88;3.00;;;21.50;50.00;;;;;;4501991;31;20567;-74
2021/12/23 13:49:50;;;;;;;4.50;3.65;;;21.50;50.00;;;;;;4503427;31;20144;-70
2021/12/23 13:52:20;;;;;;;3.85;3.15;;;21.50;50.00;;;;;;4501010;31;20160;-74
2021/12/23 13:54:46;;;;;;;4.32;3.05;;;21.50;50.20;;;;;;4502347;31;20136;-77
2021/12/23 13:57:15;;;;;;;4.20;3.03;;;21.50;50.30;;;;;;4502377;31;20112;-76
2021/12/23 13:59:42;;;;;;;3.85;2.78;;;21.50;50.30;;;;;;4493780;31;20195;-74
2021/12/23 14:02:12;;;;;;;4.72;3.60;;;21.50;50.40;;;;;;4503668;31;20236;-74
2021/12/23 14:04:44;;;;;;;3.95;3.35;;;21.50;50.40;;;;;;4500760;31;20132;-74
2021/12/23 14:07:21;;;;;;;6.40;3.30;;;21.50;50.40;;;;;;4502332;31;20113;-72
2021/12/23 14:09:51;;;;;;;6.05;3.35;;;21.50;50.50;;;;;;4502179;31;20142;-71
2021/12/23 14:12:42;;;;;;;3.92;2.92;;;21.50;50.40;;;;;;4501849;31;20141;-73
2021/12/23 14:15:12;;;;;;;5.20;3.15;;;21.50;50.40;;;;;;4493975;31;20249;-74
2021/12/23 14:17:40;;;;;;;5.78;3.05;;;21.50;50.40;;;;;;4493438;31;20124;-72
2021/12/23 14:23:15;;;;;;;4.72;3.10;;;21.50;50.50;;;;;;4500574;31;20224;-73
2021/12/23 14:25:52;;;;;;;4.35;3.13;;;21.50;50.50;;;;;;4500856;31;20236;-71